sensor_id;sensor_type;location;lat;lon;timestamp;P1;durP1;ratioP1;P2;durP2;ratioP2
22248;SDS011;67538;52.180;5.646;2023-11-19T00:01:00;43.87;;;16.70;;
22248;SDS011;67538;52.180;5.646;2023-11-19T00:03:30;50.37;;;17.00;;
22248;SDS011;67538;52.180;5.646;2023-11-19T00:05:58;46.60;;;16.73;;
22248;SDS011;67538;52.180;5.646;2023-11-19T00:08:25;42.10;;;16.17;;
22248;SDS011;67538;52.180;5.646;2023-11-19T00:10:52;42.70;;;15.73;;
22248;SDS011;67538;52.180;5.646;2023-11-19T00:13:21;39.40;;;15.77;;
22248;SDS011;67538;52.180;5.646;2023-11-19T00:15:48;34.60;;;15.73;;
22248;SDS011;67538;52.180;5.646;2023-11-19T00:18:15;44.50;;;15.80;;
22248;SDS011;67538;52.180;5.646;2023-11-19T00:20:42;41.60;;;15.73;;
22248;SDS011;67538;52.180;5.646;2023-11-19T00:23:09;42.37;;;14.10;;
22248;SDS011;67538;52.180;5.646;2023-11-19T00:25:36;39.30;;;14.17;;
22248;SDS011;67538;52.180;5.646;2023-11-19T00:28:05;42.93;;;13.90;;
22248;SDS011;67538;52.180;5.646;2023-11-19T00:30:33;48.73;;;13.57;;
22248;SDS011;67538;52.180;5.646;2023-11-19T00:33:00;41.70;;;13.67;;
22248;SDS011;67538;52.180;5.646;2023-11-19T00:35:26;36.43;;;12.90;;
22248;SDS011;67538;52.180;5.646;2023-11-19T00:37:53;32.70;;;12.47;;
22248;SDS011;67538;52.180;5.646;2023-11-19T00:40:20;41.57;;;12.57;;
22248;SDS011;67538;52.180;5.646;2023-11-19T00:42:48;35.40;;;11.53;;
22248;SDS011;67538;52.180;5.646;2023-11-19T00:45:15;41.07;;;11.50;;
22248;SDS011;67538;52.180;5.646;2023-11-19T00:47:43;34.83;;;10.90;;
22248;SDS011;67538;52.180;5.646;2023-11-19T00:50:10;39.13;;;10.20;;
22248;SDS011;67538;52.180;5.646;2023-11-19T00:52:38;36.20;;;9.80;;
22248;SDS011;67538;52.180;5.646;2023-11-19T00:55:05;36.67;;;10.10;;
22248;SDS011;67538;52.180;5.646;2023-11-19T00:57:33;36.60;;;9.47;;
22248;SDS011;67538;52.180;5.646;2023-11-19T01:00:00;34.30;;;9.80;;
22248;SDS011;67538;52.180;5.646;2023-11-19T01:02:34;36.33;;;9.53;;
22248;SDS011;67538;52.180;5.646;2023-11-19T01:05:02;37.43;;;8.57;;
22248;SDS011;67538;52.180;5.646;2023-11-19T01:07:29;38.00;;;8.60;;
22248;SDS011;67538;52.180;5.646;2023-11-19T01:09:57;38.17;;;8.80;;
22248;SDS011;67538;52.180;5.646;2023-11-19T01:12:24;32.73;;;7.90;;
22248;SDS011;67538;52.180;5.646;2023-11-19T01:14:51;40.33;;;8.17;;
22248;SDS011;67538;52.180;5.646;2023-11-19T01:17:18;38.20;;;7.67;;
22248;SDS011;67538;52.180;5.646;2023-11-19T01:19:44;28.80;;;7.00;;
22248;SDS011;67538;52.180;5.646;2023-11-19T01:22:13;43.83;;;7.27;;
22248;SDS011;67538;52.180;5.646;2023-11-19T01:24:40;34.90;;;7.30;;
22248;SDS011;67538;52.180;5.646;2023-11-19T01:27:07;40.87;;;7.73;;
22248;SDS011;67538;52.180;5.646;2023-11-19T01:29:34;42.60;;;6.50;;
22248;SDS011;67538;52.180;5.646;2023-11-19T01:32:03;42.30;;;6.57;;
22248;SDS011;67538;52.180;5.646;2023-11-19T01:34:31;37.17;;;6.67;;
22248;SDS011;67538;52.180;5.646;2023-11-19T01:36:58;44.60;;;6.80;;
22248;SDS011;67538;52.180;5.646;2023-11-19T01:39:26;41.27;;;6.20;;
22248;SDS011;67538;52.180;5.646;2023-11-19T01:41:53;40.20;;;6.23;;
22248;SDS011;67538;52.180;5.646;2023-11-19T01:44:20;36.93;;;6.03;;
22248;SDS011;67538;52.180;5.646;2023-11-19T01:46:47;43.90;;;6.40;;
22248;SDS011;67538;52.180;5.646;2023-11-19T01:49:15;44.17;;;7.00;;
22248;SDS011;67538;52.180;5.646;2023-11-19T01:51:43;36.87;;;6.23;;
22248;SDS011;67538;52.180;5.646;2023-11-19T01:54:11;47.40;;;6.50;;
22248;SDS011;67538;52.180;5.646;2023-11-19T01:56:42;43.43;;;6.67;;
22248;SDS011;67538;52.180;5.646;2023-11-19T01:59:09;43.00;;;6.63;;
22248;SDS011;67538;52.180;5.646;2023-11-19T02:01:39;46.77;;;6.70;;
22248;SDS011;67538;52.180;5.646;2023-11-19T02:04:07;53.57;;;6.70;;
22248;SDS011;67538;52.180;5.646;2023-11-19T02:06:34;49.97;;;6.97;;
22248;SDS011;67538;52.180;5.646;2023-11-19T02:09:06;42.67;;;6.40;;
22248;SDS011;67538;52.180;5.646;2023-11-19T02:11:35;42.93;;;5.80;;
22248;SDS011;67538;52.180;5.646;2023-11-19T02:14:03;44.60;;;5.97;;
22248;SDS011;67538;52.180;5.646;2023-11-19T02:16:31;51.20;;;6.70;;
22248;SDS011;67538;52.180;5.646;2023-11-19T02:18:58;42.87;;;6.10;;
22248;SDS011;67538;52.180;5.646;2023-11-19T02:21:25;46.57;;;6.57;;
22248;SDS011;67538;52.180;5.646;2023-11-19T02:23:52;51.03;;;6.53;;
22248;SDS011;67538;52.180;5.646;2023-11-19T02:26:21;42.77;;;6.73;;
22248;SDS011;67538;52.180;5.646;2023-11-19T02:28:56;41.00;;;6.47;;
22248;SDS011;67538;52.180;5.646;2023-11-19T02:31:23;47.07;;;6.10;;
22248;SDS011;67538;52.180;5.646;2023-11-19T02:33:52;43.97;;;6.87;;
22248;SDS011;67538;52.180;5.646;2023-11-19T02:36:20;56.07;;;7.53;;
22248;SDS011;67538;52.180;5.646;2023-11-19T02:38:47;63.57;;;7.90;;
22248;SDS011;67538;52.180;5.646;2023-11-19T02:41:14;59.03;;;6.43;;
22248;SDS011;67538;52.180;5.646;2023-11-19T02:43:41;35.47;;;5.77;;
22248;SDS011;67538;52.180;5.646;2023-11-19T02:46:09;46.23;;;6.57;;
22248;SDS011;67538;52.180;5.646;2023-11-19T02:48:36;46.30;;;6.73;;
22248;SDS011;67538;52.180;5.646;2023-11-19T02:51:04;70.50;;;7.93;;
22248;SDS011;67538;52.180;5.646;2023-11-19T02:53:34;53.67;;;6.93;;
22248;SDS011;67538;52.180;5.646;2023-11-19T02:56:05;59.50;;;7.27;;
22248;SDS011;67538;52.180;5.646;2023-11-19T02:58:40;47.10;;;6.40;;
22248;SDS011;67538;52.180;5.646;2023-11-19T03:01:11;51.07;;;6.70;;
22248;SDS011;67538;52.180;5.646;2023-11-19T03:03:48;56.90;;;6.90;;
22248;SDS011;67538;52.180;5.646;2023-11-19T03:06:19;47.03;;;6.63;;
22248;SDS011;67538;52.180;5.646;2023-11-19T03:08:47;75.87;;;7.40;;
22248;SDS011;67538;52.180;5.646;2023-11-19T03:11:14;52.30;;;7.23;;
22248;SDS011;67538;52.180;5.646;2023-11-19T03:13:42;51.97;;;6.63;;
22248;SDS011;67538;52.180;5.646;2023-11-19T03:16:10;52.97;;;7.90;;
22248;SDS011;67538;52.180;5.646;2023-11-19T03:18:37;61.67;;;7.53;;
22248;SDS011;67538;52.180;5.646;2023-11-19T03:21:05;53.73;;;7.60;;
22248;SDS011;67538;52.180;5.646;2023-11-19T03:23:33;47.80;;;6.93;;
22248;SDS011;67538;52.180;5.646;2023-11-19T03:26:00;64.03;;;7.07;;
22248;SDS011;67538;52.180;5.646;2023-11-19T03:28:28;52.13;;;7.63;;
22248;SDS011;67538;52.180;5.646;2023-11-19T03:30:56;58.87;;;6.73;;
22248;SDS011;67538;52.180;5.646;2023-11-19T03:33:24;60.00;;;6.37;;
22248;SDS011;67538;52.180;5.646;2023-11-19T03:35:52;55.63;;;7.27;;
22248;SDS011;67538;52.180;5.646;2023-11-19T03:38:21;53.73;;;7.93;;
22248;SDS011;67538;52.180;5.646;2023-11-19T03:40:48;56.43;;;7.47;;
22248;SDS011;67538;52.180;5.646;2023-11-19T03:43:15;50.80;;;6.63;;
22248;SDS011;67538;52.180;5.646;2023-11-19T03:45:44;45.10;;;6.43;;
22248;SDS011;67538;52.180;5.646;2023-11-19T03:48:11;47.67;;;6.23;;
22248;SDS011;67538;52.180;5.646;2023-11-19T03:50:42;54.57;;;6.83;;
22248;SDS011;67538;52.180;5.646;2023-11-19T03:53:10;56.23;;;6.47;;
22248;SDS011;67538;52.180;5.646;2023-11-19T03:55:38;44.63;;;6.67;;
22248;SDS011;67538;52.180;5.646;2023-11-19T03:58:05;70.50;;;7.87;;
22248;SDS011;67538;52.180;5.646;2023-11-19T04:00:32;59.77;;;6.43;;
22248;SDS011;67538;52.180;5.646;2023-11-19T04:02:59;59.90;;;7.40;;
22248;SDS011;67538;52.180;5.646;2023-11-19T04:05:26;63.03;;;7.37;;
22248;SDS011;67538;52.180;5.646;2023-11-19T04:07:55;51.87;;;7.10;;
22248;SDS011;67538;52.180;5.646;2023-11-19T04:10:22;49.87;;;6.63;;
22248;SDS011;67538;52.180;5.646;2023-11-19T04:12:49;47.63;;;6.67;;
22248;SDS011;67538;52.180;5.646;2023-11-19T04:15:16;67.13;;;7.73;;
22248;SDS011;67538;52.180;5.646;2023-11-19T04:17:43;62.23;;;8.10;;
22248;SDS011;67538;52.180;5.646;2023-11-19T04:20:10;67.67;;;8.00;;
22248;SDS011;67538;52.180;5.646;2023-11-19T04:22:38;71.07;;;8.77;;
22248;SDS011;67538;52.180;5.646;2023-11-19T04:25:07;68.00;;;8.23;;
22248;SDS011;67538;52.180;5.646;2023-11-19T04:27:36;63.03;;;8.07;;
22248;SDS011;67538;52.180;5.646;2023-11-19T04:30:03;57.90;;;7.83;;
22248;SDS011;67538;52.180;5.646;2023-11-19T04:32:36;60.97;;;7.77;;
22248;SDS011;67538;52.180;5.646;2023-11-19T04:35:03;61.37;;;6.97;;
22248;SDS011;67538;52.180;5.646;2023-11-19T04:37:31;64.63;;;7.67;;
22248;SDS011;67538;52.180;5.646;2023-11-19T04:39:59;55.47;;;6.97;;
22248;SDS011;67538;52.180;5.646;2023-11-19T04:42:28;62.53;;;7.10;;
22248;SDS011;67538;52.180;5.646;2023-11-19T04:44:55;49.63;;;7.07;;
22248;SDS011;67538;52.180;5.646;2023-11-19T04:47:22;56.03;;;7.10;;
22248;SDS011;67538;52.180;5.646;2023-11-19T04:49:49;59.67;;;7.80;;
22248;SDS011;67538;52.180;5.646;2023-11-19T04:52:16;53.77;;;7.40;;
22248;SDS011;67538;52.180;5.646;2023-11-19T04:54:43;68.17;;;8.57;;
22248;SDS011;67538;52.180;5.646;2023-11-19T04:57:10;64.83;;;7.40;;
22248;SDS011;67538;52.180;5.646;2023-11-19T04:59:39;77.97;;;8.03;;
22248;SDS011;67538;52.180;5.646;2023-11-19T05:02:06;65.97;;;8.50;;
22248;SDS011;67538;52.180;5.646;2023-11-19T05:04:34;62.00;;;7.63;;
22248;SDS011;67538;52.180;5.646;2023-11-19T05:07:02;57.63;;;7.40;;
22248;SDS011;67538;52.180;5.646;2023-11-19T05:09:30;54.30;;;7.83;;
22248;SDS011;67538;52.180;5.646;2023-11-19T05:11:57;84.00;;;8.37;;
22248;SDS011;67538;52.180;5.646;2023-11-19T05:14:24;68.47;;;8.63;;
22248;SDS011;67538;52.180;5.646;2023-11-19T05:16:53;62.60;;;6.97;;
22248;SDS011;67538;52.180;5.646;2023-11-19T05:19:20;54.43;;;6.90;;
22248;SDS011;67538;52.180;5.646;2023-11-19T05:21:47;53.77;;;7.27;;
22248;SDS011;67538;52.180;5.646;2023-11-19T05:24:17;65.87;;;8.43;;
22248;SDS011;67538;52.180;5.646;2023-11-19T05:26:44;71.77;;;8.93;;
22248;SDS011;67538;52.180;5.646;2023-11-19T05:29:12;78.00;;;8.33;;
22248;SDS011;67538;52.180;5.646;2023-11-19T05:31:39;52.60;;;7.07;;
22248;SDS011;67538;52.180;5.646;2023-11-19T05:34:07;72.23;;;8.50;;
22248;SDS011;67538;52.180;5.646;2023-11-19T05:36:34;57.13;;;7.27;;
22248;SDS011;67538;52.180;5.646;2023-11-19T05:39:01;48.03;;;6.33;;
22248;SDS011;67538;52.180;5.646;2023-11-19T05:41:30;59.20;;;7.17;;
22248;SDS011;67538;52.180;5.646;2023-11-19T05:43:56;64.03;;;8.73;;
22248;SDS011;67538;52.180;5.646;2023-11-19T05:46:23;59.53;;;7.30;;
22248;SDS011;67538;52.180;5.646;2023-11-19T05:48:52;47.20;;;7.10;;
22248;SDS011;67538;52.180;5.646;2023-11-19T05:51:20;56.67;;;6.60;;
22248;SDS011;67538;52.180;5.646;2023-11-19T05:53:49;47.10;;;5.80;;
22248;SDS011;67538;52.180;5.646;2023-11-19T05:56:16;66.27;;;8.77;;
22248;SDS011;67538;52.180;5.646;2023-11-19T05:58:46;67.37;;;8.40;;
22248;SDS011;67538;52.180;5.646;2023-11-19T06:01:14;59.60;;;8.23;;
22248;SDS011;67538;52.180;5.646;2023-11-19T06:03:41;74.83;;;7.60;;
22248;SDS011;67538;52.180;5.646;2023-11-19T06:06:12;58.20;;;6.70;;
22248;SDS011;67538;52.180;5.646;2023-11-19T06:08:41;68.07;;;7.90;;
22248;SDS011;67538;52.180;5.646;2023-11-19T06:11:09;60.73;;;7.30;;
22248;SDS011;67538;52.180;5.646;2023-11-19T06:13:39;46.47;;;6.27;;
22248;SDS011;67538;52.180;5.646;2023-11-19T06:16:08;66.37;;;7.80;;
22248;SDS011;67538;52.180;5.646;2023-11-19T06:18:36;73.10;;;8.03;;
22248;SDS011;67538;52.180;5.646;2023-11-19T06:21:03;57.53;;;7.37;;
22248;SDS011;67538;52.180;5.646;2023-11-19T06:23:30;49.33;;;7.17;;
22248;SDS011;67538;52.180;5.646;2023-11-19T06:25:58;75.60;;;7.60;;
22248;SDS011;67538;52.180;5.646;2023-11-19T06:28:25;52.87;;;6.80;;
22248;SDS011;67538;52.180;5.646;2023-11-19T06:30:52;62.03;;;7.37;;
22248;SDS011;67538;52.180;5.646;2023-11-19T06:33:19;66.50;;;7.70;;
22248;SDS011;67538;52.180;5.646;2023-11-19T06:35:47;63.90;;;8.03;;
22248;SDS011;67538;52.180;5.646;2023-11-19T06:38:14;57.47;;;8.23;;
22248;SDS011;67538;52.180;5.646;2023-11-19T06:40:41;56.53;;;7.30;;
22248;SDS011;67538;52.180;5.646;2023-11-19T06:43:10;63.07;;;7.43;;
22248;SDS011;67538;52.180;5.646;2023-11-19T06:45:37;62.93;;;7.70;;
22248;SDS011;67538;52.180;5.646;2023-11-19T06:48:04;52.13;;;6.67;;
22248;SDS011;67538;52.180;5.646;2023-11-19T06:50:32;46.97;;;6.97;;
22248;SDS011;67538;52.180;5.646;2023-11-19T06:52:59;53.57;;;8.13;;
22248;SDS011;67538;52.180;5.646;2023-11-19T06:55:26;63.47;;;8.03;;
22248;SDS011;67538;52.180;5.646;2023-11-19T06:57:53;53.27;;;6.23;;
22248;SDS011;67538;52.180;5.646;2023-11-19T07:00:21;56.60;;;7.47;;
22248;SDS011;67538;52.180;5.646;2023-11-19T07:02:48;58.13;;;6.73;;
22248;SDS011;67538;52.180;5.646;2023-11-19T07:05:16;53.17;;;8.10;;
22248;SDS011;67538;52.180;5.646;2023-11-19T07:07:43;47.90;;;6.10;;
22248;SDS011;67538;52.180;5.646;2023-11-19T07:10:12;60.87;;;7.67;;
22248;SDS011;67538;52.180;5.646;2023-11-19T07:12:39;72.07;;;7.30;;
22248;SDS011;67538;52.180;5.646;2023-11-19T07:15:07;69.70;;;7.50;;
22248;SDS011;67538;52.180;5.646;2023-11-19T07:17:36;55.97;;;6.60;;
22248;SDS011;67538;52.180;5.646;2023-11-19T07:20:05;57.20;;;7.20;;
22248;SDS011;67538;52.180;5.646;2023-11-19T07:22:32;50.90;;;6.53;;
22248;SDS011;67538;52.180;5.646;2023-11-19T07:25:00;64.00;;;7.67;;
22248;SDS011;67538;52.180;5.646;2023-11-19T07:27:27;74.87;;;7.67;;
22248;SDS011;67538;52.180;5.646;2023-11-19T07:29:54;61.83;;;6.90;;
22248;SDS011;67538;52.180;5.646;2023-11-19T07:32:21;61.67;;;7.30;;
22248;SDS011;67538;52.180;5.646;2023-11-19T07:34:49;54.00;;;7.40;;
22248;SDS011;67538;52.180;5.646;2023-11-19T07:37:16;51.23;;;7.10;;
22248;SDS011;67538;52.180;5.646;2023-11-19T07:39:43;53.10;;;6.80;;
22248;SDS011;67538;52.180;5.646;2023-11-19T07:42:10;62.33;;;8.57;;
22248;SDS011;67538;52.180;5.646;2023-11-19T07:44:37;58.47;;;6.60;;
22248;SDS011;67538;52.180;5.646;2023-11-19T07:47:04;55.20;;;7.13;;
22248;SDS011;67538;52.180;5.646;2023-11-19T07:49:31;68.80;;;7.43;;
22248;SDS011;67538;52.180;5.646;2023-11-19T07:52:00;65.90;;;8.13;;
22248;SDS011;67538;52.180;5.646;2023-11-19T07:54:28;51.90;;;8.20;;
22248;SDS011;67538;52.180;5.646;2023-11-19T07:56:55;68.10;;;8.23;;
22248;SDS011;67538;52.180;5.646;2023-11-19T07:59:22;63.67;;;7.90;;
22248;SDS011;67538;52.180;5.646;2023-11-19T08:01:49;64.43;;;8.53;;
22248;SDS011;67538;52.180;5.646;2023-11-19T08:04:16;62.20;;;6.97;;
22248;SDS011;67538;52.180;5.646;2023-11-19T08:06:43;64.03;;;7.70;;
22248;SDS011;67538;52.180;5.646;2023-11-19T08:09:12;61.27;;;6.87;;
22248;SDS011;67538;52.180;5.646;2023-11-19T08:11:40;53.73;;;7.63;;
22248;SDS011;67538;52.180;5.646;2023-11-19T08:14:07;63.47;;;7.47;;
22248;SDS011;67538;52.180;5.646;2023-11-19T08:16:34;67.30;;;7.90;;
22248;SDS011;67538;52.180;5.646;2023-11-19T08:19:02;53.57;;;7.67;;
22248;SDS011;67538;52.180;5.646;2023-11-19T08:21:29;58.43;;;7.63;;
22248;SDS011;67538;52.180;5.646;2023-11-19T08:23:56;71.47;;;7.47;;
22248;SDS011;67538;52.180;5.646;2023-11-19T08:26:25;54.90;;;6.93;;
22248;SDS011;67538;52.180;5.646;2023-11-19T08:28:52;59.60;;;7.20;;
22248;SDS011;67538;52.180;5.646;2023-11-19T08:31:19;50.40;;;6.83;;
22248;SDS011;67538;52.180;5.646;2023-11-19T08:33:46;62.00;;;7.23;;
22248;SDS011;67538;52.180;5.646;2023-11-19T08:36:16;65.03;;;8.57;;
22248;SDS011;67538;52.180;5.646;2023-11-19T08:38:43;65.73;;;7.70;;
22248;SDS011;67538;52.180;5.646;2023-11-19T08:41:10;58.73;;;8.17;;
22248;SDS011;67538;52.180;5.646;2023-11-19T08:43:38;67.07;;;8.23;;
22248;SDS011;67538;52.180;5.646;2023-11-19T08:46:09;57.20;;;7.63;;
22248;SDS011;67538;52.180;5.646;2023-11-19T08:48:36;67.60;;;8.50;;
22248;SDS011;67538;52.180;5.646;2023-11-19T08:51:04;53.83;;;7.23;;
22248;SDS011;67538;52.180;5.646;2023-11-19T08:53:30;56.30;;;7.73;;
22248;SDS011;67538;52.180;5.646;2023-11-19T08:55:57;69.70;;;7.73;;
22248;SDS011;67538;52.180;5.646;2023-11-19T08:58:25;49.87;;;7.40;;
22248;SDS011;67538;52.180;5.646;2023-11-19T09:00:53;44.37;;;7.03;;
22248;SDS011;67538;52.180;5.646;2023-11-19T09:03:21;60.27;;;7.30;;
22248;SDS011;67538;52.180;5.646;2023-11-19T09:05:48;58.90;;;6.37;;
22248;SDS011;67538;52.180;5.646;2023-11-19T09:08:15;61.77;;;8.20;;
22248;SDS011;67538;52.180;5.646;2023-11-19T09:10:42;56.53;;;6.87;;
22248;SDS011;67538;52.180;5.646;2023-11-19T09:13:09;48.40;;;6.60;;
22248;SDS011;67538;52.180;5.646;2023-11-19T09:15:36;54.07;;;6.80;;
22248;SDS011;67538;52.180;5.646;2023-11-19T09:18:04;51.60;;;7.03;;
22248;SDS011;67538;52.180;5.646;2023-11-19T09:20:31;54.10;;;7.60;;
22248;SDS011;67538;52.180;5.646;2023-11-19T09:23:03;42.53;;;5.67;;
22248;SDS011;67538;52.180;5.646;2023-11-19T09:25:30;56.53;;;6.40;;
22248;SDS011;67538;52.180;5.646;2023-11-19T09:27:57;51.53;;;6.70;;
22248;SDS011;67538;52.180;5.646;2023-11-19T09:30:24;45.17;;;6.63;;
22248;SDS011;67538;52.180;5.646;2023-11-19T09:32:51;51.87;;;7.13;;
22248;SDS011;67538;52.180;5.646;2023-11-19T09:35:19;53.43;;;6.20;;
22248;SDS011;67538;52.180;5.646;2023-11-19T09:37:46;47.20;;;7.27;;
22248;SDS011;67538;52.180;5.646;2023-11-19T09:40:13;43.70;;;5.97;;
22248;SDS011;67538;52.180;5.646;2023-11-19T09:42:43;59.93;;;7.73;;
22248;SDS011;67538;52.180;5.646;2023-11-19T09:45:13;45.43;;;6.10;;
22248;SDS011;67538;52.180;5.646;2023-11-19T09:47:42;44.80;;;6.47;;
22248;SDS011;67538;52.180;5.646;2023-11-19T09:50:12;65.03;;;7.63;;
22248;SDS011;67538;52.180;5.646;2023-11-19T09:52:44;50.80;;;6.60;;
22248;SDS011;67538;52.180;5.646;2023-11-19T09:55:11;45.10;;;7.77;;
22248;SDS011;67538;52.180;5.646;2023-11-19T09:57:38;55.77;;;6.47;;
22248;SDS011;67538;52.180;5.646;2023-11-19T10:00:07;49.83;;;7.47;;
22248;SDS011;67538;52.180;5.646;2023-11-19T10:02:35;49.43;;;6.70;;
22248;SDS011;67538;52.180;5.646;2023-11-19T10:05:04;46.53;;;6.33;;
22248;SDS011;67538;52.180;5.646;2023-11-19T10:07:33;49.77;;;8.07;;
22248;SDS011;67538;52.180;5.646;2023-11-19T10:10:02;52.77;;;6.47;;
22248;SDS011;67538;52.180;5.646;2023-11-19T10:12:30;57.37;;;8.33;;
22248;SDS011;67538;52.180;5.646;2023-11-19T10:14:57;38.30;;;5.73;;
22248;SDS011;67538;52.180;5.646;2023-11-19T10:17:27;50.70;;;6.67;;
22248;SDS011;67538;52.180;5.646;2023-11-19T10:19:55;62.13;;;7.10;;
22248;SDS011;67538;52.180;5.646;2023-11-19T10:22:22;53.57;;;6.37;;
22248;SDS011;67538;52.180;5.646;2023-11-19T10:24:50;47.30;;;7.07;;
22248;SDS011;67538;52.180;5.646;2023-11-19T10:27:18;42.33;;;6.03;;
22248;SDS011;67538;52.180;5.646;2023-11-19T10:29:45;59.20;;;5.90;;
22248;SDS011;67538;52.180;5.646;2023-11-19T10:32:13;47.30;;;6.60;;
22248;SDS011;67538;52.180;5.646;2023-11-19T10:34:40;62.87;;;6.70;;
22248;SDS011;67538;52.180;5.646;2023-11-19T10:37:08;54.87;;;7.83;;
22248;SDS011;67538;52.180;5.646;2023-11-19T10:39:51;46.07;;;5.77;;
22248;SDS011;67538;52.180;5.646;2023-11-19T10:42:21;39.67;;;5.97;;
22248;SDS011;67538;52.180;5.646;2023-11-19T10:44:48;50.77;;;6.47;;
22248;SDS011;67538;52.180;5.646;2023-11-19T10:47:15;51.17;;;6.53;;
22248;SDS011;67538;52.180;5.646;2023-11-19T10:49:45;47.87;;;6.97;;
22248;SDS011;67538;52.180;5.646;2023-11-19T10:52:13;53.67;;;6.47;;
22248;SDS011;67538;52.180;5.646;2023-11-19T10:54:44;50.63;;;6.17;;
22248;SDS011;67538;52.180;5.646;2023-11-19T10:57:19;43.20;;;6.73;;
22248;SDS011;67538;52.180;5.646;2023-11-19T10:59:48;59.97;;;6.73;;
22248;SDS011;67538;52.180;5.646;2023-11-19T11:02:19;54.87;;;6.43;;
22248;SDS011;67538;52.180;5.646;2023-11-19T11:04:50;41.37;;;5.93;;
22248;SDS011;67538;52.180;5.646;2023-11-19T11:07:18;44.53;;;6.37;;
22248;SDS011;67538;52.180;5.646;2023-11-19T11:09:49;47.27;;;5.70;;
22248;SDS011;67538;52.180;5.646;2023-11-19T11:12:18;39.73;;;6.03;;
22248;SDS011;67538;52.180;5.646;2023-11-19T11:14:50;54.50;;;6.43;;
22248;SDS011;67538;52.180;5.646;2023-11-19T11:17:19;55.70;;;6.43;;
22248;SDS011;67538;52.180;5.646;2023-11-19T11:19:50;40.80;;;5.40;;
22248;SDS011;67538;52.180;5.646;2023-11-19T11:22:17;48.50;;;7.07;;
22248;SDS011;67538;52.180;5.646;2023-11-19T11:24:51;38.40;;;6.13;;
22248;SDS011;67538;52.180;5.646;2023-11-19T11:27:40;51.23;;;6.50;;
22248;SDS011;67538;52.180;5.646;2023-11-19T11:30:17;42.90;;;6.07;;
22248;SDS011;67538;52.180;5.646;2023-11-19T11:32:58;38.63;;;5.60;;
22248;SDS011;67538;52.180;5.646;2023-11-19T11:35:39;43.17;;;6.20;;
22248;SDS011;67538;52.180;5.646;2023-11-19T11:38:16;35.13;;;5.40;;
22248;SDS011;67538;52.180;5.646;2023-11-19T11:43:45;47.63;;;6.37;;
22248;SDS011;67538;52.180;5.646;2023-11-19T11:49:24;49.57;;;5.77;;
22248;SDS011;67538;52.180;5.646;2023-11-19T11:52:02;42.97;;;5.80;;
22248;SDS011;67538;52.180;5.646;2023-11-19T11:54:30;46.83;;;6.53;;
22248;SDS011;67538;52.180;5.646;2023-11-19T11:59:47;36.33;;;6.60;;
22248;SDS011;67538;52.180;5.646;2023-11-19T12:02:16;46.90;;;6.30;;
22248;SDS011;67538;52.180;5.646;2023-11-19T12:04:46;43.83;;;6.40;;
22248;SDS011;67538;52.180;5.646;2023-11-19T12:07:16;46.77;;;6.87;;
22248;SDS011;67538;52.180;5.646;2023-11-19T12:09:46;49.70;;;6.80;;
22248;SDS011;67538;52.180;5.646;2023-11-19T12:12:18;43.33;;;6.00;;
22248;SDS011;67538;52.180;5.646;2023-11-19T12:15:04;42.37;;;6.47;;
22248;SDS011;67538;52.180;5.646;2023-11-19T12:17:44;40.80;;;6.10;;
22248;SDS011;67538;52.180;5.646;2023-11-19T12:20:17;37.70;;;5.70;;
22248;SDS011;67538;52.180;5.646;2023-11-19T12:22:45;43.13;;;6.23;;
22248;SDS011;67538;52.180;5.646;2023-11-19T12:25:14;52.23;;;7.10;;
22248;SDS011;67538;52.180;5.646;2023-11-19T12:27:43;48.40;;;6.40;;
22248;SDS011;67538;52.180;5.646;2023-11-19T12:30:12;50.77;;;6.80;;
22248;SDS011;67538;52.180;5.646;2023-11-19T12:32:43;39.50;;;5.63;;
22248;SDS011;67538;52.180;5.646;2023-11-19T12:35:12;35.93;;;5.83;;
22248;SDS011;67538;52.180;5.646;2023-11-19T12:37:39;31.67;;;4.97;;
22248;SDS011;67538;52.180;5.646;2023-11-19T12:40:11;37.40;;;5.47;;
22248;SDS011;67538;52.180;5.646;2023-11-19T12:42:42;36.03;;;4.80;;
22248;SDS011;67538;52.180;5.646;2023-11-19T12:45:11;43.60;;;5.20;;
22248;SDS011;67538;52.180;5.646;2023-11-19T12:47:38;36.23;;;5.10;;
22248;SDS011;67538;52.180;5.646;2023-11-19T12:50:06;44.77;;;5.47;;
22248;SDS011;67538;52.180;5.646;2023-11-19T12:52:34;34.33;;;4.70;;
22248;SDS011;67538;52.180;5.646;2023-11-19T12:55:02;35.10;;;5.13;;
22248;SDS011;67538;52.180;5.646;2023-11-19T12:57:36;33.93;;;4.93;;
22248;SDS011;67538;52.180;5.646;2023-11-19T13:00:04;34.50;;;5.87;;
22248;SDS011;67538;52.180;5.646;2023-11-19T13:02:45;35.20;;;4.97;;
22248;SDS011;67538;52.180;5.646;2023-11-19T13:05:24;38.47;;;5.67;;
22248;SDS011;67538;52.180;5.646;2023-11-19T13:08:02;32.43;;;5.20;;
22248;SDS011;67538;52.180;5.646;2023-11-19T13:10:30;31.63;;;5.13;;
22248;SDS011;67538;52.180;5.646;2023-11-19T13:13:01;30.83;;;4.80;;
22248;SDS011;67538;52.180;5.646;2023-11-19T13:15:30;40.07;;;5.60;;
22248;SDS011;67538;52.180;5.646;2023-11-19T13:17:58;36.80;;;5.20;;
22248;SDS011;67538;52.180;5.646;2023-11-19T13:20:26;41.70;;;5.37;;
22248;SDS011;67538;52.180;5.646;2023-11-19T13:22:53;37.70;;;5.90;;
22248;SDS011;67538;52.180;5.646;2023-11-19T13:25:23;30.67;;;4.57;;
22248;SDS011;67538;52.180;5.646;2023-11-19T13:27:51;30.17;;;6.07;;
22248;SDS011;67538;52.180;5.646;2023-11-19T13:30:18;38.60;;;5.90;;
22248;SDS011;67538;52.180;5.646;2023-11-19T13:32:45;33.10;;;5.13;;
22248;SDS011;67538;52.180;5.646;2023-11-19T13:35:13;42.40;;;6.33;;
22248;SDS011;67538;52.180;5.646;2023-11-19T13:37:40;35.73;;;5.63;;
22248;SDS011;67538;52.180;5.646;2023-11-19T13:40:08;39.40;;;5.30;;
22248;SDS011;67538;52.180;5.646;2023-11-19T13:42:38;44.97;;;5.40;;
22248;SDS011;67538;52.180;5.646;2023-11-19T13:45:07;37.07;;;5.73;;
22248;SDS011;67538;52.180;5.646;2023-11-19T13:47:36;38.43;;;5.97;;
22248;SDS011;67538;52.180;5.646;2023-11-19T13:50:06;42.43;;;5.70;;
22248;SDS011;67538;52.180;5.646;2023-11-19T13:52:35;37.33;;;5.23;;
22248;SDS011;67538;52.180;5.646;2023-11-19T13:55:05;51.60;;;5.97;;
22248;SDS011;67538;52.180;5.646;2023-11-19T13:57:33;47.33;;;6.00;;
22248;SDS011;67538;52.180;5.646;2023-11-19T14:00:00;42.33;;;6.20;;
22248;SDS011;67538;52.180;5.646;2023-11-19T14:02:30;52.17;;;6.80;;
22248;SDS011;67538;52.180;5.646;2023-11-19T14:04:57;43.67;;;5.87;;
22248;SDS011;67538;52.180;5.646;2023-11-19T14:07:25;26.03;;;5.57;;
22248;SDS011;67538;52.180;5.646;2023-11-19T14:09:53;38.77;;;5.70;;
22248;SDS011;67538;52.180;5.646;2023-11-19T14:12:20;46.37;;;5.90;;
22248;SDS011;67538;52.180;5.646;2023-11-19T14:14:48;46.13;;;7.60;;
22248;SDS011;67538;52.180;5.646;2023-11-19T14:17:14;45.03;;;6.83;;
22248;SDS011;67538;52.180;5.646;2023-11-19T14:19:42;30.77;;;5.27;;
22248;SDS011;67538;52.180;5.646;2023-11-19T14:22:09;41.00;;;6.40;;
22248;SDS011;67538;52.180;5.646;2023-11-19T14:24:36;36.63;;;5.03;;
22248;SDS011;67538;52.180;5.646;2023-11-19T14:27:06;36.50;;;5.30;;
22248;SDS011;67538;52.180;5.646;2023-11-19T14:29:33;26.33;;;4.60;;
22248;SDS011;67538;52.180;5.646;2023-11-19T14:32:00;32.23;;;4.37;;
22248;SDS011;67538;52.180;5.646;2023-11-19T14:34:28;39.20;;;5.60;;
22248;SDS011;67538;52.180;5.646;2023-11-19T14:36:55;31.27;;;5.13;;
22248;SDS011;67538;52.180;5.646;2023-11-19T14:39:22;25.97;;;4.77;;
22248;SDS011;67538;52.180;5.646;2023-11-19T14:41:49;27.67;;;4.07;;
22248;SDS011;67538;52.180;5.646;2023-11-19T14:44:19;33.53;;;5.30;;
22248;SDS011;67538;52.180;5.646;2023-11-19T14:46:46;32.77;;;5.10;;
22248;SDS011;67538;52.180;5.646;2023-11-19T14:49:13;38.43;;;5.63;;